Decoded Metar for SARC (CORRIENTES in ARGENTINA) (IATA:CNQ) | Meteo·Mobile Aviation Weather
aviador You're here:

SARC Decoded Metar

CORRIENTES in ARGENTINA
Report Time2018-12-14 13:00:00
UTC Time2018-12-14 13:08:57
Flight Rules vfr VFR
Wind020° at 14 kt
W.Decomp.*RWY 02: 13.8 kt HW 2.4 kt RCW
W.Rank020° ranks 8
Current wind is above 020° avg. (8.5)
Visibility9999 m
Phenomena:N/A
Clouds:N/A
Expected CloudBase > 3,600 ft AGL from Temp-Dew spread
CeilingNone
Temp32°C (ISA +17)
Dew Point23°C (59% RH)
Heat Index36.8°C
QNH1006 hPa
Density Alt2,795 ft
Elevation203 ft
Report Wrong Elevation
Raw Report
METAR SARC 141300Z 02014KT CAVOK 32/23 Q1006=

Extra information for SARC:More info

Metar Taf Metar & Taf Last 4 Metars F.Rules Stats Wind Profile Meteogram Temp Stats Airport Information Weather charts Add Link Nearby VenuesMetar ALERT Operation Metar Decoded Social comments